sensor_id;sensor_type;location;lat;lon;timestamp;temperature;humidity
76785;SHT30;66893;44.316;0.092;2023-09-30T00:00:22;24.84;56.87
76785;SHT30;66893;44.316;0.092;2023-09-30T00:02:47;24.84;56.87
76785;SHT30;66893;44.316;0.092;2023-09-30T00:05:13;24.88;56.80
76785;SHT30;66893;44.316;0.092;2023-09-30T00:07:40;24.88;56.71
76785;SHT30;66893;44.316;0.092;2023-09-30T00:10:06;24.87;56.69
76785;SHT30;66893;44.316;0.092;2023-09-30T00:12:31;24.90;56.63
76785;SHT30;66893;44.316;0.092;2023-09-30T00:14:57;24.91;56.57
76785;SHT30;66893;44.316;0.092;2023-09-30T00:17:22;24.92;56.53
76785;SHT30;66893;44.316;0.092;2023-09-30T00:19:48;24.90;56.47
76785;SHT30;66893;44.316;0.092;2023-09-30T00:22:13;24.90;56.44
76785;SHT30;66893;44.316;0.092;2023-09-30T00:24:39;24.91;56.38
76785;SHT30;66893;44.316;0.092;2023-09-30T00:27:05;24.91;56.35
76785;SHT30;66893;44.316;0.092;2023-09-30T00:29:30;24.91;56.30
76785;SHT30;66893;44.316;0.092;2023-09-30T00:31:55;24.92;56.24
76785;SHT30;66893;44.316;0.092;2023-09-30T00:34:21;24.91;56.21
76785;SHT30;66893;44.316;0.092;2023-09-30T00:36:46;24.90;56.19
76785;SHT30;66893;44.316;0.092;2023-09-30T00:39:12;24.91;56.17
76785;SHT30;66893;44.316;0.092;2023-09-30T00:41:39;24.90;56.10
76785;SHT30;66893;44.316;0.092;2023-09-30T00:44:04;24.90;56.07
76785;SHT30;66893;44.316;0.092;2023-09-30T00:46:32;24.91;56.03
76785;SHT30;66893;44.316;0.092;2023-09-30T00:48:59;24.87;56.02
76785;SHT30;66893;44.316;0.092;2023-09-30T00:51:29;24.90;56.04
76785;SHT30;66893;44.316;0.092;2023-09-30T00:53:58;24.90;55.92
76785;SHT30;66893;44.316;0.092;2023-09-30T00:56:26;24.90;55.91
76785;SHT30;66893;44.316;0.092;2023-09-30T00:58:52;24.91;55.87
76785;SHT30;66893;44.316;0.092;2023-09-30T01:01:19;24.91;55.83
76785;SHT30;66893;44.316;0.092;2023-09-30T01:03:46;24.88;55.85
76785;SHT30;66893;44.316;0.092;2023-09-30T01:06:12;24.87;55.80
76785;SHT30;66893;44.316;0.092;2023-09-30T01:08:38;24.88;55.77
76785;SHT30;66893;44.316;0.092;2023-09-30T01:11:04;24.87;55.74
76785;SHT30;66893;44.316;0.092;2023-09-30T01:13:37;24.84;55.72
76785;SHT30;66893;44.316;0.092;2023-09-30T01:16:08;24.84;55.71
76785;SHT30;66893;44.316;0.092;2023-09-30T01:18:35;24.86;55.68
76785;SHT30;66893;44.316;0.092;2023-09-30T01:21:04;24.83;55.66
76785;SHT30;66893;44.316;0.092;2023-09-30T01:23:31;24.83;55.62
76785;SHT30;66893;44.316;0.092;2023-09-30T01:25:57;24.83;55.59
76785;SHT30;66893;44.316;0.092;2023-09-30T01:28:24;24.81;55.57
76785;SHT30;66893;44.316;0.092;2023-09-30T01:30:49;24.83;55.55
76785;SHT30;66893;44.316;0.092;2023-09-30T01:33:16;24.80;55.53
76785;SHT30;66893;44.316;0.092;2023-09-30T01:35:44;24.81;55.52
76785;SHT30;66893;44.316;0.092;2023-09-30T01:38:10;24.83;55.50
76785;SHT30;66893;44.316;0.092;2023-09-30T01:40:35;24.79;55.43
76785;SHT30;66893;44.316;0.092;2023-09-30T01:43:03;24.80;55.43
76785;SHT30;66893;44.316;0.092;2023-09-30T01:45:28;24.79;55.42
76785;SHT30;66893;44.316;0.092;2023-09-30T01:47:53;24.77;55.43
76785;SHT30;66893;44.316;0.092;2023-09-30T01:50:19;24.74;55.36
76785;SHT30;66893;44.316;0.092;2023-09-30T01:52:45;24.72;55.34
76785;SHT30;66893;44.316;0.092;2023-09-30T01:55:10;24.73;55.30
76785;SHT30;66893;44.316;0.092;2023-09-30T01:57:36;24.73;55.36
76785;SHT30;66893;44.316;0.092;2023-09-30T02:00:02;24.73;55.27
76785;SHT30;66893;44.316;0.092;2023-09-30T02:02:28;24.72;55.30
76785;SHT30;66893;44.316;0.092;2023-09-30T02:04:53;24.69;55.25
76785;SHT30;66893;44.316;0.092;2023-09-30T02:07:19;24.69;55.25
76785;SHT30;66893;44.316;0.092;2023-09-30T02:09:44;24.67;55.24
76785;SHT30;66893;44.316;0.092;2023-09-30T02:12:10;24.69;55.19
76785;SHT30;66893;44.316;0.092;2023-09-30T02:14:36;24.67;55.18
76785;SHT30;66893;44.316;0.092;2023-09-30T02:17:03;24.66;55.20
76785;SHT30;66893;44.316;0.092;2023-09-30T02:19:29;24.64;55.19
76785;SHT30;66893;44.316;0.092;2023-09-30T02:21:56;24.64;55.16
76785;SHT30;66893;44.316;0.092;2023-09-30T02:24:22;24.64;55.17
76785;SHT30;66893;44.316;0.092;2023-09-30T02:26:48;24.62;55.14
76785;SHT30;66893;44.316;0.092;2023-09-30T02:29:13;24.64;55.14
76785;SHT30;66893;44.316;0.092;2023-09-30T02:31:40;24.63;55.14
76785;SHT30;66893;44.316;0.092;2023-09-30T02:34:06;24.62;55.07
76785;SHT30;66893;44.316;0.092;2023-09-30T02:36:32;24.62;55.04
76785;SHT30;66893;44.316;0.092;2023-09-30T02:38:58;24.60;55.06
76785;SHT30;66893;44.316;0.092;2023-09-30T02:41:24;24.56;55.07
76785;SHT30;66893;44.316;0.092;2023-09-30T02:43:50;24.59;55.05
76785;SHT30;66893;44.316;0.092;2023-09-30T02:46:15;24.56;55.03
76785;SHT30;66893;44.316;0.092;2023-09-30T02:48:40;24.56;55.04
76785;SHT30;66893;44.316;0.092;2023-09-30T02:51:10;24.55;54.98
76785;SHT30;66893;44.316;0.092;2023-09-30T02:53:36;24.53;55.05
76785;SHT30;66893;44.316;0.092;2023-09-30T02:56:01;24.52;54.96
76785;SHT30;66893;44.316;0.092;2023-09-30T02:58:27;24.53;54.96
76785;SHT30;66893;44.316;0.092;2023-09-30T03:00:54;24.53;54.99
76785;SHT30;66893;44.316;0.092;2023-09-30T03:03:19;24.49;54.93
76785;SHT30;66893;44.316;0.092;2023-09-30T03:05:45;24.49;54.93
76785;SHT30;66893;44.316;0.092;2023-09-30T03:08:10;24.48;54.92
76785;SHT30;66893;44.316;0.092;2023-09-30T03:10:36;24.46;54.91
76785;SHT30;66893;44.316;0.092;2023-09-30T03:13:06;24.45;54.93
76785;SHT30;66893;44.316;0.092;2023-09-30T03:15:33;24.43;54.94
76785;SHT30;66893;44.316;0.092;2023-09-30T03:17:58;24.42;54.91
76785;SHT30;66893;44.316;0.092;2023-09-30T03:20:25;24.42;54.91
76785;SHT30;66893;44.316;0.092;2023-09-30T03:22:51;24.40;54.90
76785;SHT30;66893;44.316;0.092;2023-09-30T03:25:19;24.40;54.92
76785;SHT30;66893;44.316;0.092;2023-09-30T03:27:46;24.40;54.89
76785;SHT30;66893;44.316;0.092;2023-09-30T03:30:15;24.39;54.91
76785;SHT30;66893;44.316;0.092;2023-09-30T03:32:44;24.37;54.86
76785;SHT30;66893;44.316;0.092;2023-09-30T03:35:11;24.37;54.90
76785;SHT30;66893;44.316;0.092;2023-09-30T03:37:49;24.36;54.90
76785;SHT30;66893;44.316;0.092;2023-09-30T03:40:15;24.33;54.86
76785;SHT30;66893;44.316;0.092;2023-09-30T03:42:45;24.32;54.87
76785;SHT30;66893;44.316;0.092;2023-09-30T03:45:13;24.30;54.82
76785;SHT30;66893;44.316;0.092;2023-09-30T03:47:40;24.30;54.84
76785;SHT30;66893;44.316;0.092;2023-09-30T03:50:09;24.30;54.79
76785;SHT30;66893;44.316;0.092;2023-09-30T03:52:39;24.28;54.82
76785;SHT30;66893;44.316;0.092;2023-09-30T03:55:05;24.29;54.79
76785;SHT30;66893;44.316;0.092;2023-09-30T03:57:33;24.28;54.79
76785;SHT30;66893;44.316;0.092;2023-09-30T04:00:00;24.25;54.74
76785;SHT30;66893;44.316;0.092;2023-09-30T04:02:25;24.24;54.75
76785;SHT30;66893;44.316;0.092;2023-09-30T04:04:51;24.22;54.75
76785;SHT30;66893;44.316;0.092;2023-09-30T04:07:19;24.22;54.76
76785;SHT30;66893;44.316;0.092;2023-09-30T04:09:44;24.21;54.76
76785;SHT30;66893;44.316;0.092;2023-09-30T04:12:09;24.19;54.75
76785;SHT30;66893;44.316;0.092;2023-09-30T04:14:35;24.18;54.75
76785;SHT30;66893;44.316;0.092;2023-09-30T04:17:00;24.18;54.76
76785;SHT30;66893;44.316;0.092;2023-09-30T04:19:26;24.18;54.78
76785;SHT30;66893;44.316;0.092;2023-09-30T04:21:51;24.15;54.78
76785;SHT30;66893;44.316;0.092;2023-09-30T04:24:17;24.18;54.76
76785;SHT30;66893;44.316;0.092;2023-09-30T04:26:45;24.15;54.78
76785;SHT30;66893;44.316;0.092;2023-09-30T04:29:11;24.12;54.73
76785;SHT30;66893;44.316;0.092;2023-09-30T04:31:37;24.12;54.76
76785;SHT30;66893;44.316;0.092;2023-09-30T04:34:04;24.14;54.70
76785;SHT30;66893;44.316;0.092;2023-09-30T04:36:30;24.09;54.76
76785;SHT30;66893;44.316;0.092;2023-09-30T04:38:56;24.11;54.74
76785;SHT30;66893;44.316;0.092;2023-09-30T04:41:21;24.09;54.72
76785;SHT30;66893;44.316;0.092;2023-09-30T04:43:47;24.09;54.67
76785;SHT30;66893;44.316;0.092;2023-09-30T04:46:13;24.08;54.64
76785;SHT30;66893;44.316;0.092;2023-09-30T04:48:39;24.08;54.64
76785;SHT30;66893;44.316;0.092;2023-09-30T04:51:08;24.04;54.66
76785;SHT30;66893;44.316;0.092;2023-09-30T04:53:34;24.07;54.65
76785;SHT30;66893;44.316;0.092;2023-09-30T04:55:59;24.01;54.63
76785;SHT30;66893;44.316;0.092;2023-09-30T04:58:26;24.01;54.61
76785;SHT30;66893;44.316;0.092;2023-09-30T05:00:52;24.01;54.59
76785;SHT30;66893;44.316;0.092;2023-09-30T05:03:17;24.00;54.61
76785;SHT30;66893;44.316;0.092;2023-09-30T05:05:44;24.01;54.55
76785;SHT30;66893;44.316;0.092;2023-09-30T05:08:09;23.98;54.56
76785;SHT30;66893;44.316;0.092;2023-09-30T05:10:36;23.97;54.54
76785;SHT30;66893;44.316;0.092;2023-09-30T05:13:02;23.97;54.57
76785;SHT30;66893;44.316;0.092;2023-09-30T05:15:28;23.94;54.53
76785;SHT30;66893;44.316;0.092;2023-09-30T05:17:57;23.94;54.50
76785;SHT30;66893;44.316;0.092;2023-09-30T05:20:22;23.94;54.48
76785;SHT30;66893;44.316;0.092;2023-09-30T05:22:50;23.93;54.49
76785;SHT30;66893;44.316;0.092;2023-09-30T05:25:16;23.91;54.43
76785;SHT30;66893;44.316;0.092;2023-09-30T05:27:43;23.93;54.49
76785;SHT30;66893;44.316;0.092;2023-09-30T05:30:09;23.90;54.45
76785;SHT30;66893;44.316;0.092;2023-09-30T05:32:36;23.88;54.45
76785;SHT30;66893;44.316;0.092;2023-09-30T05:35:04;23.87;54.38
76785;SHT30;66893;44.316;0.092;2023-09-30T05:37:30;23.87;54.41
76785;SHT30;66893;44.316;0.092;2023-09-30T05:39:56;23.85;54.42
76785;SHT30;66893;44.316;0.092;2023-09-30T05:42:21;23.84;54.41
76785;SHT30;66893;44.316;0.092;2023-09-30T05:44:47;23.84;54.43
76785;SHT30;66893;44.316;0.092;2023-09-30T05:47:13;23.80;54.35
76785;SHT30;66893;44.316;0.092;2023-09-30T05:49:41;23.80;54.36
76785;SHT30;66893;44.316;0.092;2023-09-30T05:52:09;23.80;54.33
76785;SHT30;66893;44.316;0.092;2023-09-30T05:54:34;23.78;54.36
76785;SHT30;66893;44.316;0.092;2023-09-30T05:57:00;23.78;54.35
76785;SHT30;66893;44.316;0.092;2023-09-30T05:59:26;23.77;54.32
76785;SHT30;66893;44.316;0.092;2023-09-30T06:01:53;23.77;54.32
76785;SHT30;66893;44.316;0.092;2023-09-30T06:04:18;23.75;54.32
76785;SHT30;66893;44.316;0.092;2023-09-30T06:06:44;23.74;54.30
76785;SHT30;66893;44.316;0.092;2023-09-30T06:09:10;23.75;54.31
76785;SHT30;66893;44.316;0.092;2023-09-30T06:11:36;23.75;54.27
76785;SHT30;66893;44.316;0.092;2023-09-30T06:14:02;23.74;54.31
76785;SHT30;66893;44.316;0.092;2023-09-30T06:16:28;23.73;54.29
76785;SHT30;66893;44.316;0.092;2023-09-30T06:18:54;23.70;54.28
76785;SHT30;66893;44.316;0.092;2023-09-30T06:21:21;23.73;54.30
76785;SHT30;66893;44.316;0.092;2023-09-30T06:23:50;23.69;54.27
76785;SHT30;66893;44.316;0.092;2023-09-30T06:26:19;23.70;54.31
76785;SHT30;66893;44.316;0.092;2023-09-30T06:28:46;23.70;54.35
76785;SHT30;66893;44.316;0.092;2023-09-30T06:31:13;23.70;54.31
76785;SHT30;66893;44.316;0.092;2023-09-30T06:33:39;23.69;54.31
76785;SHT30;66893;44.316;0.092;2023-09-30T06:36:14;23.69;54.37
76785;SHT30;66893;44.316;0.092;2023-09-30T06:38:40;23.70;54.33
76785;SHT30;66893;44.316;0.092;2023-09-30T06:41:15;23.70;54.30
76785;SHT30;66893;44.316;0.092;2023-09-30T06:43:41;23.70;54.32
76785;SHT30;66893;44.316;0.092;2023-09-30T06:46:07;23.70;54.31
76785;SHT30;66893;44.316;0.092;2023-09-30T06:48:34;23.71;54.32
76785;SHT30;66893;44.316;0.092;2023-09-30T06:51:00;23.70;54.27
76785;SHT30;66893;44.316;0.092;2023-09-30T06:53:25;23.54;54.30
76785;SHT30;66893;44.316;0.092;2023-09-30T06:55:51;23.35;54.50
76785;SHT30;66893;44.316;0.092;2023-09-30T06:58:16;23.14;54.73
76785;SHT30;66893;44.316;0.092;2023-09-30T07:00:47;22.97;54.89
76785;SHT30;66893;44.316;0.092;2023-09-30T07:03:12;22.81;55.11
76785;SHT30;66893;44.316;0.092;2023-09-30T07:05:40;22.67;55.31
76785;SHT30;66893;44.316;0.092;2023-09-30T07:08:06;22.53;55.56
76785;SHT30;66893;44.316;0.092;2023-09-30T07:10:31;22.46;55.74
76785;SHT30;66893;44.316;0.092;2023-09-30T07:12:57;22.32;55.95
76785;SHT30;66893;44.316;0.092;2023-09-30T07:15:22;22.22;56.12
76785;SHT30;66893;44.316;0.092;2023-09-30T07:17:48;22.15;56.40
76785;SHT30;66893;44.316;0.092;2023-09-30T07:20:14;22.05;56.59
76785;SHT30;66893;44.316;0.092;2023-09-30T07:22:40;22.02;56.71
76785;SHT30;66893;44.316;0.092;2023-09-30T07:25:07;21.99;56.95
76785;SHT30;66893;44.316;0.092;2023-09-30T07:27:32;21.97;57.08
76785;SHT30;66893;44.316;0.092;2023-09-30T07:29:58;21.99;57.26
76785;SHT30;66893;44.316;0.092;2023-09-30T07:32:24;21.97;57.32
76785;SHT30;66893;44.316;0.092;2023-09-30T07:34:49;21.98;57.58
76785;SHT30;66893;44.316;0.092;2023-09-30T07:37:16;21.97;57.55
76785;SHT30;66893;44.316;0.092;2023-09-30T07:39:43;21.97;57.84
76785;SHT30;66893;44.316;0.092;2023-09-30T07:42:11;21.98;57.91
76785;SHT30;66893;44.316;0.092;2023-09-30T07:44:37;21.95;58.18
76785;SHT30;66893;44.316;0.092;2023-09-30T07:47:04;21.99;58.20
76785;SHT30;66893;44.316;0.092;2023-09-30T07:49:32;21.98;58.45
76785;SHT30;66893;44.316;0.092;2023-09-30T07:51:58;21.97;58.69
76785;SHT30;66893;44.316;0.092;2023-09-30T07:54:23;21.99;58.89
76785;SHT30;66893;44.316;0.092;2023-09-30T07:56:49;22.02;59.14
76785;SHT30;66893;44.316;0.092;2023-09-30T07:59:14;22.02;59.29
76785;SHT30;66893;44.316;0.092;2023-09-30T08:01:41;22.02;59.57
76785;SHT30;66893;44.316;0.092;2023-09-30T08:04:09;22.05;60.08
76785;SHT30;66893;44.316;0.092;2023-09-30T08:06:34;22.08;60.04
76785;SHT30;66893;44.316;0.092;2023-09-30T08:08:59;22.13;60.29
76785;SHT30;66893;44.316;0.092;2023-09-30T08:11:25;22.15;60.50
76785;SHT30;66893;44.316;0.092;2023-09-30T08:13:55;22.16;60.89
76785;SHT30;66893;44.316;0.092;2023-09-30T08:16:21;22.23;61.04
76785;SHT30;66893;44.316;0.092;2023-09-30T08:18:46;22.30;61.05
76785;SHT30;66893;44.316;0.092;2023-09-30T08:21:12;22.35;61.37
76785;SHT30;66893;44.316;0.092;2023-09-30T08:23:37;22.40;61.16
76785;SHT30;66893;44.316;0.092;2023-09-30T08:26:06;22.46;61.47
76785;SHT30;66893;44.316;0.092;2023-09-30T08:28:32;22.50;61.54
76785;SHT30;66893;44.316;0.092;2023-09-30T08:31:07;22.56;61.54
76785;SHT30;66893;44.316;0.092;2023-09-30T08:33:34;22.61;61.73
76785;SHT30;66893;44.316;0.092;2023-09-30T08:36:04;22.71;61.79
76785;SHT30;66893;44.316;0.092;2023-09-30T08:38:36;22.78;61.84
76785;SHT30;66893;44.316;0.092;2023-09-30T08:41:02;22.87;62.01
76785;SHT30;66893;44.316;0.092;2023-09-30T08:43:28;22.94;61.92
76785;SHT30;66893;44.316;0.092;2023-09-30T08:45:56;23.01;61.96
76785;SHT30;66893;44.316;0.092;2023-09-30T08:48:28;23.08;61.82
76785;SHT30;66893;44.316;0.092;2023-09-30T08:50:56;23.16;61.64
76785;SHT30;66893;44.316;0.092;2023-09-30T08:53:23;23.23;61.93
76785;SHT30;66893;44.316;0.092;2023-09-30T08:55:52;23.32;61.75
76785;SHT30;66893;44.316;0.092;2023-09-30T08:58:19;23.39;61.93
76785;SHT30;66893;44.316;0.092;2023-09-30T09:00:46;23.47;61.85
76785;SHT30;66893;44.316;0.092;2023-09-30T09:03:12;23.54;61.92
76785;SHT30;66893;44.316;0.092;2023-09-30T09:05:38;23.64;61.89
76785;SHT30;66893;44.316;0.092;2023-09-30T09:08:03;23.73;61.79
76785;SHT30;66893;44.316;0.092;2023-09-30T09:10:29;23.78;61.79
76785;SHT30;66893;44.316;0.092;2023-09-30T09:12:58;23.85;61.62
76785;SHT30;66893;44.316;0.092;2023-09-30T09:15:28;23.93;61.51
76785;SHT30;66893;44.316;0.092;2023-09-30T09:17:56;23.98;61.69
76785;SHT30;66893;44.316;0.092;2023-09-30T09:20:24;24.05;61.14
76785;SHT30;66893;44.316;0.092;2023-09-30T09:22:53;24.09;61.45
76785;SHT30;66893;44.316;0.092;2023-09-30T09:25:21;24.15;61.19
76785;SHT30;66893;44.316;0.092;2023-09-30T09:27:53;24.22;60.93
76785;SHT30;66893;44.316;0.092;2023-09-30T09:30:20;24.28;61.31
76785;SHT30;66893;44.316;0.092;2023-09-30T09:33:02;24.33;61.26
76785;SHT30;66893;44.316;0.092;2023-09-30T09:35:29;24.39;61.71
76785;SHT30;66893;44.316;0.092;2023-09-30T09:38:06;24.46;61.41
76785;SHT30;66893;44.316;0.092;2023-09-30T09:40:37;24.53;61.24
76785;SHT30;66893;44.316;0.092;2023-09-30T09:43:06;24.60;61.54
76785;SHT30;66893;44.316;0.092;2023-09-30T09:45:36;24.66;61.37
76785;SHT30;66893;44.316;0.092;2023-09-30T09:48:06;24.72;60.94
76785;SHT30;66893;44.316;0.092;2023-09-30T09:50:32;24.79;60.90
76785;SHT30;66893;44.316;0.092;2023-09-30T09:52:58;24.83;61.13
76785;SHT30;66893;44.316;0.092;2023-09-30T09:55:26;24.88;60.82
76785;SHT30;66893;44.316;0.092;2023-09-30T09:57:52;24.94;60.51
76785;SHT30;66893;44.316;0.092;2023-09-30T10:00:23;25.03;60.74
76785;SHT30;66893;44.316;0.092;2023-09-30T10:02:50;25.06;60.57
76785;SHT30;66893;44.316;0.092;2023-09-30T10:05:17;25.11;60.44
76785;SHT30;66893;44.316;0.092;2023-09-30T10:10:20;25.24;60.50
76785;SHT30;66893;44.316;0.092;2023-09-30T10:12:46;25.31;60.25
76785;SHT30;66893;44.316;0.092;2023-09-30T10:20:41;25.45;59.80
76785;SHT30;66893;44.316;0.092;2023-09-30T10:23:25;25.50;59.68
76785;SHT30;66893;44.316;0.092;2023-09-30T10:28:44;25.62;59.61
76785;SHT30;66893;44.316;0.092;2023-09-30T10:31:20;25.69;59.41
76785;SHT30;66893;44.316;0.092;2023-09-30T10:36:28;25.80;59.12
76785;SHT30;66893;44.316;0.092;2023-09-30T10:38:54;25.83;59.25
76785;SHT30;66893;44.316;0.092;2023-09-30T10:46:51;26.00;58.71
76785;SHT30;66893;44.316;0.092;2023-09-30T10:49:30;26.00;58.59
76785;SHT30;66893;44.316;0.092;2023-09-30T10:51:58;26.02;58.69
76785;SHT30;66893;44.316;0.092;2023-09-30T10:54:31;26.07;58.69
76785;SHT30;66893;44.316;0.092;2023-09-30T10:56:58;26.11;58.67
76785;SHT30;66893;44.316;0.092;2023-09-30T10:59:31;26.13;58.57
76785;SHT30;66893;44.316;0.092;2023-09-30T11:01:57;26.14;58.56
76785;SHT30;66893;44.316;0.092;2023-09-30T11:04:24;26.18;58.48
76785;SHT30;66893;44.316;0.092;2023-09-30T11:06:49;26.21;58.44
76785;SHT30;66893;44.316;0.092;2023-09-30T11:09:19;26.22;58.43
76785;SHT30;66893;44.316;0.092;2023-09-30T11:11:52;26.28;58.35
76785;SHT30;66893;44.316;0.092;2023-09-30T11:14:28;26.28;58.29
76785;SHT30;66893;44.316;0.092;2023-09-30T11:16:57;26.34;58.24
76785;SHT30;66893;44.316;0.092;2023-09-30T11:19:23;26.38;58.18
76785;SHT30;66893;44.316;0.092;2023-09-30T11:21:50;26.42;58.10
76785;SHT30;66893;44.316;0.092;2023-09-30T11:24:16;26.45;57.96
76785;SHT30;66893;44.316;0.092;2023-09-30T11:26:45;26.49;57.96
76785;SHT30;66893;44.316;0.092;2023-09-30T11:29:16;26.53;57.83
76785;SHT30;66893;44.316;0.092;2023-09-30T11:31:45;26.57;57.82
76785;SHT30;66893;44.316;0.092;2023-09-30T11:34:16;26.62;57.71
76785;SHT30;66893;44.316;0.092;2023-09-30T11:39:27;26.73;57.58
76785;SHT30;66893;44.316;0.092;2023-09-30T11:41:53;26.78;57.50
76785;SHT30;66893;44.316;0.092;2023-09-30T11:44:20;26.83;57.47
76785;SHT30;66893;44.316;0.092;2023-09-30T11:46:53;26.89;57.38
76785;SHT30;66893;44.316;0.092;2023-09-30T11:49:27;26.93;57.34
76785;SHT30;66893;44.316;0.092;2023-09-30T11:51:53;26.97;57.24
76785;SHT30;66893;44.316;0.092;2023-09-30T11:54:18;27.01;57.21
76785;SHT30;66893;44.316;0.092;2023-09-30T11:56:44;27.07;57.14
76785;SHT30;66893;44.316;0.092;2023-09-30T11:59:10;27.11;57.04
76785;SHT30;66893;44.316;0.092;2023-09-30T12:01:37;27.18;57.05
76785;SHT30;66893;44.316;0.092;2023-09-30T12:04:03;27.23;57.00
76785;SHT30;66893;44.316;0.092;2023-09-30T12:06:29;27.28;56.89
76785;SHT30;66893;44.316;0.092;2023-09-30T12:08:55;27.35;56.81
76785;SHT30;66893;44.316;0.092;2023-09-30T12:11:20;27.41;56.78
76785;SHT30;66893;44.316;0.092;2023-09-30T12:13:49;27.46;56.69
76785;SHT30;66893;44.316;0.092;2023-09-30T12:16:18;27.49;56.64
76785;SHT30;66893;44.316;0.092;2023-09-30T12:18:45;27.55;56.52
76785;SHT30;66893;44.316;0.092;2023-09-30T12:21:12;27.61;56.46
76785;SHT30;66893;44.316;0.092;2023-09-30T12:23:39;27.67;56.41
76785;SHT30;66893;44.316;0.092;2023-09-30T12:26:05;27.75;56.35
76785;SHT30;66893;44.316;0.092;2023-09-30T12:28:34;27.78;56.27
76785;SHT30;66893;44.316;0.092;2023-09-30T12:31:00;27.88;56.16
76785;SHT30;66893;44.316;0.092;2023-09-30T12:33:30;27.93;56.14
76785;SHT30;66893;44.316;0.092;2023-09-30T12:35:56;27.97;56.04
76785;SHT30;66893;44.316;0.092;2023-09-30T12:38:26;28.04;55.89
76785;SHT30;66893;44.316;0.092;2023-09-30T12:40:53;28.13;55.69
76785;SHT30;66893;44.316;0.092;2023-09-30T12:43:19;28.17;55.53
76785;SHT30;66893;44.316;0.092;2023-09-30T12:45:45;28.25;55.38
76785;SHT30;66893;44.316;0.092;2023-09-30T12:48:11;28.34;55.18
76785;SHT30;66893;44.316;0.092;2023-09-30T12:50:36;28.38;54.96
76785;SHT30;66893;44.316;0.092;2023-09-30T12:53:02;28.45;54.84
76785;SHT30;66893;44.316;0.092;2023-09-30T12:55:27;28.52;54.80
76785;SHT30;66893;44.316;0.092;2023-09-30T12:57:53;28.56;54.72
76785;SHT30;66893;44.316;0.092;2023-09-30T13:00:19;28.62;54.61
76785;SHT30;66893;44.316;0.092;2023-09-30T13:02:45;28.69;54.56
76785;SHT30;66893;44.316;0.092;2023-09-30T13:05:14;28.76;54.46
76785;SHT30;66893;44.316;0.092;2023-09-30T13:07:42;28.80;54.38
76785;SHT30;66893;44.316;0.092;2023-09-30T13:10:08;28.84;54.24
76785;SHT30;66893;44.316;0.092;2023-09-30T13:12:33;28.92;54.19
76785;SHT30;66893;44.316;0.092;2023-09-30T13:15:00;29.00;54.09
76785;SHT30;66893;44.316;0.092;2023-09-30T13:17:25;29.04;54.00
76785;SHT30;66893;44.316;0.092;2023-09-30T13:19:51;29.07;53.94
76785;SHT30;66893;44.316;0.092;2023-09-30T13:22:17;29.13;53.80
76785;SHT30;66893;44.316;0.092;2023-09-30T13:24:43;29.21;53.74
76785;SHT30;66893;44.316;0.092;2023-09-30T13:27:09;29.27;53.64
76785;SHT30;66893;44.316;0.092;2023-09-30T13:29:34;29.33;53.52
76785;SHT30;66893;44.316;0.092;2023-09-30T13:32:01;29.38;53.38
76785;SHT30;66893;44.316;0.092;2023-09-30T13:34:26;29.47;53.35
76785;SHT30;66893;44.316;0.092;2023-09-30T13:36:52;29.54;53.17
76785;SHT30;66893;44.316;0.092;2023-09-30T13:39:17;29.58;53.10
76785;SHT30;66893;44.316;0.092;2023-09-30T13:41:43;29.62;53.03
76785;SHT30;66893;44.316;0.092;2023-09-30T13:44:09;29.71;52.90
76785;SHT30;66893;44.316;0.092;2023-09-30T13:46:36;29.76;52.81
76785;SHT30;66893;44.316;0.092;2023-09-30T13:49:01;29.79;52.48
76785;SHT30;66893;44.316;0.092;2023-09-30T13:51:26;29.72;52.11
76785;SHT30;66893;44.316;0.092;2023-09-30T13:53:52;29.65;51.90
76785;SHT30;66893;44.316;0.092;2023-09-30T13:56:19;29.59;51.70
76785;SHT30;66893;44.316;0.092;2023-09-30T13:58:44;29.54;51.37
76785;SHT30;66893;44.316;0.092;2023-09-30T14:01:10;29.54;51.41
76785;SHT30;66893;44.316;0.092;2023-09-30T14:03:36;29.57;51.30
76785;SHT30;66893;44.316;0.092;2023-09-30T14:06:02;29.69;51.41
76785;SHT30;66893;44.316;0.092;2023-09-30T14:08:27;29.82;51.44
76785;SHT30;66893;44.316;0.092;2023-09-30T14:10:53;29.90;51.41
76785;SHT30;66893;44.316;0.092;2023-09-30T14:13:18;30.08;51.43
76785;SHT30;66893;44.316;0.092;2023-09-30T14:15:45;30.17;51.52
76785;SHT30;66893;44.316;0.092;2023-09-30T14:18:15;30.30;51.42
76785;SHT30;66893;44.316;0.092;2023-09-30T14:20:40;30.43;51.44
76785;SHT30;66893;44.316;0.092;2023-09-30T14:23:05;30.53;51.29
76785;SHT30;66893;44.316;0.092;2023-09-30T14:25:31;30.63;51.17
76785;SHT30;66893;44.316;0.092;2023-09-30T14:27:56;30.69;51.02
76785;SHT30;66893;44.316;0.092;2023-09-30T14:30:25;30.82;50.84
76785;SHT30;66893;44.316;0.092;2023-09-30T14:32:50;30.89;50.64
76785;SHT30;66893;44.316;0.092;2023-09-30T14:35:16;30.98;50.54
76785;SHT30;66893;44.316;0.092;2023-09-30T14:37:44;31.10;50.48
76785;SHT30;66893;44.316;0.092;2023-09-30T14:40:10;31.22;50.36
76785;SHT30;66893;44.316;0.092;2023-09-30T14:42:38;31.33;50.25
76785;SHT30;66893;44.316;0.092;2023-09-30T14:45:04;31.41;50.09
76785;SHT30;66893;44.316;0.092;2023-09-30T14:47:30;31.50;50.13
76785;SHT30;66893;44.316;0.092;2023-09-30T14:49:56;31.60;50.01
76785;SHT30;66893;44.316;0.092;2023-09-30T14:52:21;31.74;49.73
76785;SHT30;66893;44.316;0.092;2023-09-30T14:54:47;31.78;49.62
76785;SHT30;66893;44.316;0.092;2023-09-30T14:57:12;31.86;49.42
76785;SHT30;66893;44.316;0.092;2023-09-30T14:59:41;32.01;49.28
76785;SHT30;66893;44.316;0.092;2023-09-30T15:02:09;32.05;49.40
76785;SHT30;66893;44.316;0.092;2023-09-30T15:04:36;32.06;48.87
76785;SHT30;66893;44.316;0.092;2023-09-30T15:07:01;31.98;48.55
76785;SHT30;66893;44.316;0.092;2023-09-30T15:09:27;31.91;48.27
76785;SHT30;66893;44.316;0.092;2023-09-30T15:11:53;31.88;48.13
76785;SHT30;66893;44.316;0.092;2023-09-30T15:14:18;31.91;47.99
76785;SHT30;66893;44.316;0.092;2023-09-30T15:16:44;32.02;47.84
76785;SHT30;66893;44.316;0.092;2023-09-30T15:19:09;32.33;47.64
76785;SHT30;66893;44.316;0.092;2023-09-30T15:21:35;32.80;47.09
76785;SHT30;66893;44.316;0.092;2023-09-30T15:24:00;33.39;46.26
76785;SHT30;66893;44.316;0.092;2023-09-30T15:26:28;34.02;45.34
76785;SHT30;66893;44.316;0.092;2023-09-30T15:28:53;34.51;44.44
76785;SHT30;66893;44.316;0.092;2023-09-30T15:31:19;34.93;43.76
76785;SHT30;66893;44.316;0.092;2023-09-30T15:33:44;35.08;43.11
76785;SHT30;66893;44.316;0.092;2023-09-30T15:36:14;34.91;43.26
76785;SHT30;66893;44.316;0.092;2023-09-30T15:38:45;34.69;43.54
76785;SHT30;66893;44.316;0.092;2023-09-30T15:41:14;34.66;43.86
76785;SHT30;66893;44.316;0.092;2023-09-30T15:43:40;35.04;43.51
76785;SHT30;66893;44.316;0.092;2023-09-30T15:46:09;35.71;42.47
76785;SHT30;66893;44.316;0.092;2023-09-30T15:48:35;36.31;41.49